Flight Track Log - Related Links

Times and Time Zones

All times are in EDT time to prevent confusion due to time zone crossing. See the AWE648 flight status page for this flight to view local times or setup timezone preferences in your user account.

Time Position Orientation Groundspeed Altitude Reporting Facility
EDT Latitude Longitude Course Direction KTS MPH feet Rate Location/Type
Mon 10:01:59 AM 37.7000 -122.2833 83° East 201 231 4,000  Level Northern Cal TRACON
Mon 10:02:00 AM 37.9437 -122.3110 80° East  Level FlightAware Approximate
Mon 10:03:00 AM 37.9598 -122.1492 84° East  Level FlightAware Approximate
Mon 10:03:16 AM 37.7536 -122.2172 44° Northeast 259 298 6,500  Level Oakland Center
Mon 10:04:00 AM 37.9699 -121.9871 72° East  Level FlightAware Approximate
Mon 10:04:17 AM 37.7794 -122.1300 69° East 263 303 9,400  Level Oakland Center
Mon 10:05:00 AM 37.9833 -121.8266 90° East  Level FlightAware Approximate
Mon 10:06:00 AM 38.0013 -121.6748 80° East  Level FlightAware Approximate
Mon 10:06:19 AM 37.8408 -121.8953 72° East 330 380 14,600  Level Oakland Center
Mon 10:07:00 AM 38.0194 -121.5228 83° East  Level FlightAware Approximate
Mon 10:07:20 AM 37.8703 -121.7825 72° East 337 388 17,200  Level Oakland Center
Mon 10:09:00 AM 37.9328 -121.5389 83° East  Level Estimated
Mon 10:11:23 AM 37.9950 -121.3114 74° East 367 422 24,800  Level Oakland Center
Mon 10:12:24 AM 38.0272 -121.1861 72° East 372 428 26,200 1,377 Climbing Oakland Center
Mon 10:13:25 AM 38.0608 -121.0600 71° East 378 435 27,600 1,525 Climbing Oakland Center
Mon 10:14:26 AM 38.0997 -120.9042 72° East 387 445 29,300 1,328 Climbing Oakland Center
Mon 10:15:27 AM 38.1306 -120.7736 73° East 389 448 30,300 1,033 Climbing Oakland Center
Mon 10:16:00 AM 38.1899 -120.5112 74° East  Level Estimated
Mon 10:16:28 AM 38.1631 -120.6392 73° East 396 456 31,400  Level Oakland Center
Mon 10:17:29 AM 38.1961 -120.5036 73° East 401 461 32,500 934 Climbing Oakland Center
Mon 10:18:30 AM 38.2281 -120.3656 74° East 406 467 33,300 829 Climbing Oakland Center
Mon 10:19:32 AM 38.2617 -120.2269 73° East 410 472 34,200 554 Climbing Oakland Center
Mon 10:21:34 AM 38.3269 -119.9456 73° East 417 480 35,000 211 Climbing Oakland Center
Mon 10:23:19 AM 38.3836 -119.6867 74° East 411 473 35,000  Level Salt Lake Center
Mon 10:23:36 AM 38.3914 -119.6667 64° Northeast 410 472 35,000  Level Oakland Center
Mon 10:24:37 AM 38.4239 -119.5214 74° East 413 475 35,000 49 Level Oakland Center
Mon 10:25:38 AM 38.4572 -119.3786 73° East 420 483 35,100  Climbing Oakland Center
Mon 10:26:39 AM 38.4956 -119.2086 74° East 419 482 35,000 -49 Descending Oakland Center
Mon 10:27:40 AM 38.5153 -119.0631 80° East 417 480 35,000  Level Oakland Center
Mon 10:28:41 AM 38.5289 -118.9192 83° East 413 475 35,000  Level Oakland Center
Mon 10:29:42 AM 38.5433 -118.7769 83° East 407 468 35,000  Level Oakland Center
Mon 10:30:43 AM 38.5569 -118.6347 83° East 405 466 35,000  Level Oakland Center
Mon 10:31:45 AM 38.5708 -118.4922 83° East 406 467 35,000  Level Oakland Center
Mon 10:34:00 AM 38.5894 -118.2698 84° East  Level FlightAware Approximate
Mon 10:34:48 AM 38.6122 -118.0494 84° East 408 470 35,000  Level Oakland Center
Mon 10:36:00 AM 38.6280 -117.8343 85° East  Level FlightAware Approximate
Mon 10:36:40 AM 38.6353 -117.7919 85° East 404 465 35,000  Level Salt Lake Center
Mon 10:37:42 AM 38.6475 -117.6464 84° East 408 470 35,000  Level Salt Lake Center
Mon 10:38:43 AM 38.6600 -117.5025 84° East 405 466 35,000  Level Salt Lake Center
Mon 10:39:45 AM 38.6764 -117.3283 83° East 408 470 35,000  Level Salt Lake Center
Mon 10:40:47 AM 38.6958 -117.1844 80° East 410 472 35,000  Level Salt Lake Center
Mon 10:41:56 AM 38.7172 -117.0400 79° East 411 473 35,000  Level Oakland Center
Mon 10:43:00 AM 38.7401 -116.8777 80° East  Level FlightAware Approximate
Mon 10:43:52 AM 38.7594 -116.7494 80° East 413 475 35,000  Level Salt Lake Center
Mon 10:44:54 AM 38.7825 -116.6047 78° East 413 475 35,000  Level Salt Lake Center
Mon 10:45:55 AM 38.8025 -116.4594 80° East 413 475 35,000  Level Salt Lake Center
Mon 10:46:57 AM 38.8239 -116.3144 79° East 413 475 35,000  Level Salt Lake Center
Mon 10:47:59 AM 38.8447 -116.1681 80° East 416 479 35,000  Level Salt Lake Center
Mon 10:49:00 AM 38.8692 -115.9908 80° East 418 481 35,000  Level Salt Lake Center
Mon 10:50:02 AM 38.8903 -115.8425 80° East 420 483 35,000  Level Salt Lake Center
Mon 10:52:06 AM 38.9314 -115.5456 80° East 423 487 35,000  Level Salt Lake Center
Mon 10:54:09 AM 38.9711 -115.2447 80° East 429 494 35,000  Level Salt Lake Center
Mon 10:55:11 AM 38.9917 -115.0950 80° East 427 491 35,000  Level Salt Lake Center
Mon 10:57:15 AM 39.0344 -114.7667 80° East 424 488 35,000  Level Salt Lake Center
Mon 10:58:17 AM 39.0539 -114.6161 81° East 425 489 35,000  Level Salt Lake Center
Mon 11:00:20 AM 39.0928 -114.3158 80° East 424 488 35,000  Level Salt Lake Center
Mon 11:01:22 AM 39.1103 -114.1675 81° East 420 483 35,000  Level Salt Lake Center
Mon 11:02:24 AM 39.1292 -114.0175 81° East 422 486 35,000  Level Salt Lake Center
Mon 11:03:26 AM 39.1506 -113.8386 81° East 421 484 35,000  Level Salt Lake Center
Mon 11:05:30 AM 39.1861 -113.5403 81° East 422 486 35,000  Level Salt Lake Center
Mon 11:07:00 AM 39.2010 -113.3091 81° East  Level FlightAware Approximate
Mon 11:09:38 AM 39.2558 -112.9364 69° East 426 490 35,000  Level Salt Lake Center
Mon 11:10:40 AM 39.2758 -112.7533 82° East 428 493 35,000  Level Salt Lake Center
Mon 11:11:42 AM 39.2942 -112.6028 81° East 426 490 35,000 -242 Level Salt Lake Center
Mon 11:12:44 AM 39.3192 -112.4519 78° East 429 494 34,500  Descending Salt Lake Center
Mon 11:13:46 AM 39.3619 -112.3081 69° East 431 496 35,000 242 Climbing Salt Lake Center
Mon 11:14:00 AM 39.3664 -112.2508 71° East  Level FlightAware Approximate
Mon 11:14:48 AM 39.4028 -112.1656 70° East 427 491 35,000  Level Salt Lake Center
Mon 11:15:00 AM 39.4100 -112.1065 69° East  Level FlightAware Approximate
Mon 11:16:00 AM 39.4510 -111.9903 70° East  Level FlightAware Approximate
Mon 11:17:36 AM 39.5214 -111.7486 70° East 424 488 35,000  Level Denver Center
Mon 11:18:38 AM 39.5592 -111.6108 70° East 424 488 35,000  Level Denver Center
Mon 11:18:56 AM 39.5722 -111.5686 68° East 421 484 35,000  Level Salt Lake Center
Mon 11:19:58 AM 39.6131 -111.4247 70° East 425 489 35,000  Level Salt Lake Center
Mon 11:21:00 AM 39.6561 -111.2694 70° East 422 486 35,000  Level Salt Lake Center
Mon 11:22:02 AM 39.6953 -111.1322 70° East 424 488 35,000  Level Salt Lake Center
Mon 11:23:00 AM 39.7368 -110.9677 70° East  Level FlightAware Approximate
Mon 11:23:04 AM 39.7386 -110.9719 71° East 420 483 35,000  Level Salt Lake Center
Mon 11:24:50 AM 39.8081 -110.7164 70° East 426 490 35,000  Level Denver Center
Mon 11:25:52 AM 39.8444 -110.5778 71° East 426 490 35,000  Level Denver Center
Mon 11:26:10 AM 39.8581 -110.5328 68° East 424 488 35,000  Level Salt Lake Center
Mon 11:27:12 AM 39.9025 -110.3706 70° East 427 491 35,000  Level Salt Lake Center
Mon 11:28:14 AM 39.9403 -110.2294 71° East 430 495 35,000  Level Salt Lake Center
Mon 11:29:16 AM 39.9842 -110.0633 71° East 433 498 35,000 32 Level Salt Lake Center
Mon 11:31:20 AM 40.0375 -109.7453 78° East 435 501 35,100  Climbing Salt Lake Center
Mon 11:32:22 AM 40.0581 -109.5994 80° East 429 494 35,000 -48 Descending Salt Lake Center
Mon 11:33:24 AM 40.0822 -109.4275 80° East 429 494 35,000  Level Salt Lake Center
Mon 11:34:08 AM 40.0958 -109.3275 80° East 430 495 35,000  Level Denver Center
Mon 11:35:10 AM 40.1167 -109.1786 80° East 433 498 35,000  Level Denver Center
Mon 11:36:12 AM 40.1394 -109.0042 80° East 435 501 35,000  Level Denver Center
Mon 11:37:33 AM 40.1669 -108.8061 80° East 436 502 35,000  Level Salt Lake Center
Mon 11:39:18 AM 40.2028 -108.5311 80° East 432 497 35,000  Level Denver Center
Mon 11:41:00 AM 40.2265 -108.3164 82° East  Level FlightAware Approximate
Mon 11:41:41 AM 40.2522 -108.1575 82° East 438 504 35,000  Level Salt Lake Center
Mon 11:43:27 AM 40.2869 -107.8756 81° East 443 510 35,100  Climbing Denver Center
Mon 11:45:00 AM 40.3159 -107.6352 81° East  Level FlightAware Approximate
Mon 11:45:31 AM 40.3281 -107.5494 81° East 436 502 35,000  Level Denver Center
Mon 11:47:00 AM 40.3550 -107.3191 81° East  Level FlightAware Approximate
Mon 11:48:37 AM 40.3856 -107.0708 81° East 440 506 35,000  Level Denver Center
Mon 11:50:00 AM 40.4119 -106.8561 81° East  Level Estimated
Mon 11:51:43 AM 40.4453 -106.5644 81° East 449 517 35,000  Level Denver Center
Mon 11:52:45 AM 40.4639 -106.4003 81° East 452 520 35,000  Level Denver Center
Mon 11:53:47 AM 40.4836 -106.2161 82° East 455 524 35,000 -19 Level Denver Center
Mon 11:54:00 AM 40.4757 -106.2297 81° East  Level FlightAware Approximate
Mon 11:55:00 AM 40.5024 -106.0261 83° East  Level FlightAware Approximate
Mon 11:57:00 AM 40.5394 -105.7670 81° East  Level Estimated
Mon 11:57:55 AM 40.5550 -105.5519 81° East 447 514 34,900  Level Denver Center
Mon 11:58:57 AM 40.5719 -105.3867 82° East 447 514 35,000 32 Climbing Denver Center
Mon 12:00:00 PM 40.5897 -105.2228 82° East  Level Estimated
Mon 12:01:01 PM 40.6053 -105.0561 82° East 451 519 35,000  Level Denver Center
Mon 12:02:00 PM 40.6112 -104.9325 81° East  Level FlightAware Approximate
Mon 12:03:00 PM 40.6295 -104.7766 81° East  Level FlightAware Approximate
Mon 12:03:05 PM 40.6389 -104.7267 82° East 450 518 35,000  Level Denver Center
Mon 12:04:07 PM 40.6575 -104.5303 83° East 456 525 35,000  Level Denver Center
Mon 12:05:10 PM 40.6731 -104.3631 83° East 455 524 35,000  Level Denver Center
Mon 12:07:14 PM 40.7039 -104.0300 83° East 449 517 35,000  Level Denver Center
Mon 12:08:16 PM 40.7189 -103.8628 83° East 454 522 35,000  Level Denver Center
Mon 12:09:18 PM 40.7342 -103.6964 83° East 455 524 35,000  Level Denver Center
Mon 12:11:00 PM 40.7569 -103.4294 84° East  Level FlightAware Approximate
Mon 12:12:24 PM 40.7800 -103.1633 84° East 460 529 35,000  Level Denver Center
Mon 12:13:26 PM 40.7939 -102.9942 84° East 461 531 35,000  Level Denver Center
Mon 12:14:28 PM 40.8064 -102.8411 84° East 463 533 35,000  Level Denver Center
Mon 12:15:30 PM 40.8211 -102.6528 84° East 462 532 35,000  Level Denver Center
Mon 12:17:00 PM 40.8388 -102.4165 84° East  Level FlightAware Approximate
Mon 12:17:34 PM 40.8481 -102.3014 84° East 463 533 35,000  Level Denver Center
Mon 12:18:36 PM 40.8614 -102.1386 84° East 465 535 35,000  Level Denver Center
Mon 12:19:38 PM 40.8753 -101.9472 84° East 469 540 35,000  Level Denver Center
Mon 12:20:40 PM 40.8858 -101.7828 85° East 469 540 35,000  Level Denver Center
Mon 12:21:42 PM 40.8997 -101.5925 84° East 467 537 35,000  Level Denver Center
Mon 12:23:00 PM 40.9111 -101.3871 86° East  Level FlightAware Approximate
Mon 12:23:46 PM 40.9242 -101.2356 86° East 470 541 35,000  Level Denver Center
Mon 12:24:48 PM 40.9350 -101.0703 85° East 470 541 35,000  Level Denver Center
Mon 12:25:50 PM 40.9461 -100.9047 85° East 468 539 35,000  Level Denver Center
Mon 12:26:52 PM 40.9586 -100.7064 85° East 472 543 35,000  Level Denver Center
Mon 12:27:55 PM 40.9694 -100.5364 85° East 476 548 35,000  Level Denver Center
Mon 12:28:57 PM 40.9811 -100.3403 85° East 477 549 35,000  Level Denver Center
Mon 12:31:23 PM 41.0064 -99.9192 85° East 473 544 35,000  Level Minneapolis Center
Mon 12:32:03 PM 41.0122 -99.8156 86° East 472 543 35,000  Level Denver Center
Mon 12:34:07 PM 41.0344 -99.4683 85° East 472 543 35,000  Level Denver Center
Mon 12:36:11 PM 41.0569 -99.0964 85° East 474 545 35,000  Level Denver Center
Mon 12:36:33 PM 41.0592 -99.0558 86° East 473 544 35,000  Level Minneapolis Center
Mon 12:37:35 PM 41.0706 -98.8486 86° East 472 543 35,000  Level Minneapolis Center
Mon 12:39:17 PM 41.0861 -98.5797 86° East 472 543 35,000  Level Denver Center
Mon 12:40:41 PM 41.0989 -98.3411 86° East 468 539 35,000  Level Minneapolis Center
Mon 12:41:43 PM 41.1092 -98.1364 86° East 465 535 35,000  Level Minneapolis Center
Mon 12:42:45 PM 41.1178 -97.9681 86° East 461 531 35,000  Level Minneapolis Center
Mon 12:43:47 PM 41.1256 -97.7989 86° East 460 529 35,000 24 Level Minneapolis Center
Mon 12:45:00 PM 41.1334 -97.6058 87° East  Level FlightAware Approximate
Mon 12:46:53 PM 41.1494 -97.2792 87° East 463 533 35,100  Level Minneapolis Center
Mon 12:47:55 PM 41.1564 -97.1133 87° East 455 524 35,000 -24 Descending Minneapolis Center
Mon 12:49:00 PM 41.1626 -96.9412 87° East  Level Estimated
Mon 12:51:01 PM 41.1778 -96.5822 87° East 451 519 35,000  Level Minneapolis Center
Mon 12:52:00 PM 41.1722 -96.4937 87° East  Level FlightAware Approximate
Mon 12:52:03 PM 41.1847 -96.4183 87° East 449 517 35,000  Level Minneapolis Center
Mon 12:53:05 PM 41.1903 -96.2589 87° East 450 518 35,000  Level Minneapolis Center
Mon 12:54:07 PM 41.1950 -96.0953 88° East 446 513 35,000  Level Minneapolis Center
Mon 12:55:09 PM 41.1994 -95.8997 88° East 443 510 35,000  Level Minneapolis Center
Mon 12:56:00 PM 41.1964 -95.8285 87° East  Level Estimated
Mon 12:56:11 PM 41.2017 -95.7344 89° East 446 513 35,000  Level Minneapolis Center
Mon 12:57:13 PM 41.2044 -95.5781 89° East 442 509 35,000  Level Minneapolis Center
Mon 12:59:00 PM 41.2083 -95.2943 89° East  Level FlightAware Approximate
Mon 12:59:17 PM 41.2114 -95.2594 89° East 434 499 35,000  Level Minneapolis Center
Mon 01:01:00 PM 41.2139 -94.9862 89° East  Level FlightAware Approximate
Mon 01:01:21 PM 41.2147 -94.9119 89° East 429 494 35,000  Level Minneapolis Center
Mon 01:02:23 PM 41.2161 -94.7544 89° East 427 491 35,000  Level Minneapolis Center
Mon 01:03:25 PM 41.2183 -94.5967 89° East 427 491 35,000  Level Minneapolis Center
Mon 01:04:27 PM 41.2192 -94.4369 90° East 431 496 35,000 48 Level Minneapolis Center
Mon 01:05:29 PM 41.2208 -94.2778 89° East 433 498 35,100  Climbing Minneapolis Center
Mon 01:06:31 PM 41.2217 -94.0981 90° East 427 491 35,000 -32 Descending Minneapolis Center
Mon 01:08:35 PM 41.2225 -93.7881 90° East 422 486 35,000  Level Minneapolis Center
Mon 01:09:38 PM 41.2236 -93.6344 89° East 420 483 35,000  Level Minneapolis Center
Mon 01:10:40 PM 41.2242 -93.4803 90° East 420 483 35,000  Level Minneapolis Center
Mon 01:12:44 PM 41.2247 -93.1394 90° East 421 484 35,000  Level Minneapolis Center
Mon 01:14:00 PM 41.2224 -92.9421 91° East  Level FlightAware Approximate
Mon 01:15:50 PM 41.2214 -92.6747 91° East 421 484 35,000  Level Minneapolis Center
Mon 01:17:13 PM 41.2203 -92.4578 90° East 416 479 35,000  Level Chicago Center
Mon 01:18:15 PM 41.2189 -92.3044 91° East 417 480 35,000  Level Chicago Center
Mon 01:19:17 PM 41.2164 -92.1217 91° East 414 476 35,000  Level Chicago Center
Mon 01:20:19 PM 41.2150 -91.9706 91° East 413 475 35,000  Level Chicago Center
Mon 01:21:00 PM 41.2034 -91.8518 91° East  Level FlightAware Approximate
Mon 01:22:15 PM 41.2108 -91.6803 91° East 410 472 35,000  Level Minneapolis Center
Mon 01:23:26 PM 41.2086 -91.5133 91° East 407 468 35,000  Level Chicago Center
Mon 01:24:28 PM 41.2053 -91.3664 92° East 400 460 35,000  Level Chicago Center
Mon 01:25:30 PM 41.2028 -91.2172 91° East 404 465 35,000  Level Chicago Center
Mon 01:27:00 PM 41.1981 -90.9837 91° East  Level FlightAware Approximate
Mon 01:27:34 PM 41.1967 -90.8944 91° East 397 457 35,000  Level Chicago Center
Mon 01:28:36 PM 41.1933 -90.7486 92° East 396 456 35,000  Level Chicago Center
Mon 01:30:00 PM 41.1835 -90.5299 90° East  Level FlightAware Approximate
Mon 01:30:40 PM 41.1867 -90.4572 90° East 393 452 35,000  Level Chicago Center
Mon 01:32:00 PM 41.1787 -90.2487 93° East  Level FlightAware Approximate
Mon 01:33:47 PM 41.1736 -89.9906 90° East 395 455 35,000  Level Chicago Center
Mon 01:35:00 PM 41.1690 -89.8003 92° East  Level Estimated
Mon 01:35:51 PM 41.1636 -89.6986 92° East 395 455 35,000  Level Chicago Center
Mon 01:36:53 PM 41.1600 -89.5531 92° East 394 453 35,000  Level Chicago Center
Mon 01:38:00 PM 41.1574 -89.3784 91° East  Level FlightAware Approximate
Mon 01:38:57 PM 41.1617 -89.2611 91° East 394 453 35,000  Level Chicago Center
Mon 01:39:00 PM 41.1504 -89.1546 90° East  Level FlightAware Approximate
Mon 01:40:00 PM 41.1556 -89.0970 93° East  Level FlightAware Approximate
Mon 01:41:01 PM 41.1600 -88.9417 93° East 391 450 35,000  Level Chicago Center
Mon 01:43:00 PM 41.1579 -88.6314 90° East  Level FlightAware Approximate
Mon 01:44:08 PM 41.1597 -88.5103 90° East 393 452 35,000  Level Chicago Center
Mon 01:45:10 PM 41.1594 -88.3678 90° East 391 450 35,000  Level Chicago Center
Mon 01:46:12 PM 41.1586 -88.1967 90° East 393 452 35,000  Level Chicago Center
Mon 01:47:14 PM 41.1581 -88.0550 90° East 392 451 35,000  Level Chicago Center
Mon 01:48:16 PM 41.1556 -87.9119 91° East 394 453 35,000  Level Chicago Center
Mon 01:49:18 PM 41.1544 -87.7683 91° East 396 456 35,000  Level Chicago Center
Mon 01:50:20 PM 41.1533 -87.5961 90° East 394 453 35,000  Level Chicago Center
Mon 01:51:22 PM 41.1514 -87.4522 91° East 396 456 35,000  Level Chicago Center
Mon 01:52:24 PM 41.1483 -87.3089 92° East 392 451 35,000  Level Chicago Center
Mon 01:53:26 PM 41.1469 -87.1647 91° East 394 453 35,000  Level Chicago Center
Mon 01:55:00 PM 41.1326 -86.9242 91° East  Level FlightAware Approximate
Mon 01:56:33 PM 41.1383 -86.7125 91° East 387 445 35,000  Level Chicago Center
Mon 01:58:00 PM 41.1249 -86.4900 94° East  Level Estimated
Mon 01:58:37 PM 41.1317 -86.4233 94° East 393 452 35,000  Level Chicago Center
Mon 01:59:39 PM 41.1292 -86.2808 91° East 391 450 35,000  Level Chicago Center
Mon 02:01:00 PM 41.1238 -86.0732 92° East  Level FlightAware Approximate
Mon 02:01:43 PM 41.1208 -85.9653 92° East 392 451 35,000  Level Chicago Center
Mon 02:02:00 PM 41.1172 -85.8470 91° East  Level FlightAware Approximate
Mon 02:03:00 PM 41.1147 -85.7679 93° East  Level FlightAware Approximate
Mon 02:03:47 PM 41.1117 -85.6786 93° East 392 451 35,000  Level Chicago Center
Mon 02:05:51 PM 41.1031 -85.3647 92° East 388 447 35,000  Level Chicago Center
Mon 02:06:53 PM 41.0981 -85.2231 93° East 391 450 35,000  Level Chicago Center
Mon 02:07:55 PM 41.0936 -85.0822 92° East 388 447 35,000  Level Chicago Center
Mon 02:09:00 PM 41.0821 -84.9163 95° East  Level FlightAware Approximate
Mon 02:09:59 PM 41.0836 -84.8058 95° East 380 437 35,000  Level Chicago Center
Mon 02:11:13 PM 41.0758 -84.6133 93° East 385 443 35,000  Level Cleveland Center
Mon 02:12:14 PM 41.0703 -84.4753 93° East 385 443 35,000  Level Cleveland Center
Mon 02:14:15 PM 41.0606 -84.1936 93° East 385 443 35,000  Level Cleveland Center
Mon 02:16:11 PM 41.0489 -83.9386 93° East 381 438 35,000  Level Chicago Center
Mon 02:17:13 PM 41.0425 -83.7689 93° East 386 444 35,000  Level Chicago Center
Mon 02:18:15 PM 41.0356 -83.6292 94° East 385 443 35,000  Level Chicago Center
Mon 02:19:13 PM 41.0303 -83.5036 93° East 385 443 35,000  Level Cleveland Center
Mon 02:20:13 PM 41.0236 -83.3603 93° East 390 449 35,000  Level Cleveland Center
Mon 02:21:12 PM 41.0167 -83.2086 93° East 385 443 35,000  Level Cleveland Center
Mon 02:22:12 PM 41.0053 -83.0650 96° East 385 443 35,000  Level Cleveland Center
Mon 02:23:13 PM 40.9981 -82.9217 94° East 385 443 35,000  Level Cleveland Center
Mon 02:24:13 PM 40.9903 -82.7839 94° East 385 443 35,000  Level Cleveland Center
Mon 02:25:14 PM 40.9825 -82.6406 94° East 385 443 35,000  Level Cleveland Center
Mon 02:26:14 PM 40.9744 -82.5000 94° East 385 443 35,000  Level Cleveland Center
Mon 02:27:15 PM 40.9686 -82.3542 93° East 385 443 35,000  Level Cleveland Center
Mon 02:29:00 PM 40.9522 -82.0890 95° East  Level FlightAware Approximate
Mon 02:30:14 PM 40.9411 -81.9244 95° East 391 450 35,000  Level Cleveland Center
Mon 02:31:13 PM 40.9344 -81.7814 93° East 386 444 35,000  Level Cleveland Center
Mon 02:32:13 PM 40.9233 -81.6383 96° East 386 444 35,000  Level Cleveland Center
Mon 02:33:13 PM 40.9142 -81.4925 95° East 391 450 35,000  Level Cleveland Center
Mon 02:34:14 PM 40.9047 -81.3469 95° East 391 450 35,000  Level Cleveland Center
Mon 02:36:12 PM 40.8875 -81.0719 95° East 391 450 35,000  Level Cleveland Center
Mon 02:37:12 PM 40.8797 -80.9292 94° East 391 450 35,000  Level Cleveland Center
Mon 02:39:00 PM 40.8540 -80.6580 97° East  Level FlightAware Approximate
Mon 02:41:14 PM 40.8342 -80.3472 117° Southeast 399 459 35,000  Level Cleveland Center
Mon 02:43:15 PM 40.7728 -80.0706 106° East 392 451 35,000  Level Cleveland Center
Mon 02:44:12 PM 40.7178 -79.9256 117° Southeast 392 451 35,000  Level Cleveland Center
Mon 02:46:00 PM 40.6230 -79.6563 117° Southeast  Level FlightAware Approximate
Mon 02:46:00 PM 40.6309 -79.6771 117° Southeast  Level FlightAware Approximate
Mon 02:47:13 PM 40.4822 -79.6306 92° East 392 451 35,000  Level Cleveland Center
Mon 02:48:14 PM 40.3981 -79.5389 140° Southeast 392 451 35,000  Level Cleveland Center
Mon 02:49:15 PM 40.3117 -79.4506 142° Southeast 397 457 35,000  Level Cleveland Center
Mon 02:51:13 PM 40.2156 -79.2264 119° Southeast 371 427 35,000 -707 Level Cleveland Center
Mon 02:53:00 PM 40.3127 -78.7126 92° East  Level FlightAware Approximate
Mon 02:53:00 PM 40.1969 -78.9591 95° East  Level Estimated
Mon 02:54:12 PM 40.2589 -78.7547 95° East 409 471 31,500  Level Cleveland Center
Mon 02:56:55 PM 40.2856 -78.3414 85° East 444 511 27,500 -1,281 Descending New York Center
Mon 02:58:53 PM 40.2650 -78.0397 95° East 417 480 25,500 -843 Descending New York Center
Mon 02:59:53 PM 40.2550 -77.8944 95° East 411 473 25,000 -246 Descending New York Center
Mon 03:00:55 PM 40.2431 -77.7464 96° East 411 473 25,000  Level New York Center
Mon 03:01:53 PM 40.2328 -77.6011 95° East 406 467 25,000 -1,017 Level New York Center
Mon 03:02:53 PM 40.2225 -77.4533 95° East 406 467 23,000 -2,213 Descending New York Center
Mon 03:03:55 PM 40.2094 -77.3108 97° East 406 467 20,500 -1,430 Descending New York Center
Mon 03:06:00 PM 40.2862 -77.0207 111° Southeast  Level FlightAware Approximate
Mon 03:07:55 PM 40.1628 -76.7383 99° East 390 449 15,800  Level New York Center
Mon 03:09:00 PM 40.1332 -76.5806 104° East  Level Estimated
Mon 03:10:54 PM 40.1322 -76.3394 104° East 364 419 11,400  Level New York Center
Mon 03:11:53 PM 40.1194 -76.2108 97° East 358 412 11,000 -202 Descending New York Center
Mon 03:12:53 PM 40.1100 -76.0958 96° East 358 412 11,000 -636 Level New York Center
Mon 03:13:00 PM 40.0927 -76.0077 99° East  Level FlightAware Approximate
Mon 03:14:24 PM 40.1000 -75.9167 94° East 273 314 9,400  Level Philadelphia TRACON
Mon 03:15:56 PM 40.0350 -75.8083 128° Southeast 252 290 7,100 -850 Descending New York Center
Mon 03:16:00 PM 39.9369 -75.5646 104° East  Level Estimated
Mon 03:18:00 PM 39.9693 -75.5778 96° East  Level Estimated
Mon 03:18:24 PM 39.8833 -75.6833 96° East 237 273 6,000  Level Philadelphia TRACON
Mon 03:18:56 PM 39.8700 -75.6692 141° Southeast 235 270 5,400 -1,888 Descending New York Center
Mon 03:19:53 PM 39.8292 -75.5961 126° Southeast 229 264 3,200 -1,636 Descending New York Center
Mon 03:20:24 PM 39.8333 -75.5500 83° East 217 250 3,000 -382 Descending Philadelphia TRACON
Mon 03:22:30 PM 39.8333 -75.4167 90° East 157 181 2,200 -516 Descending Philadelphia TRACON
Mon 03:23:30 PM 39.8500 -75.3667 67° East 150 173 1,400 -529 Descending Philadelphia TRACON
Mon 03:25:54 PM 39.8658 -75.2522 80° East 130 150 400 -417 Descending New York Center

Login

Don't have an account? Register now (free) for customized features, flight alerts, and more!